createdAt,value
2023-05-15T00:01:02.653Z,10.40
2023-05-15T00:03:04.830Z,10.30
2023-05-15T00:05:09.593Z,10.30
2023-05-15T00:07:11.348Z,10.30
2023-05-15T00:09:13.205Z,10.30
2023-05-15T00:11:14.858Z,10.40
2023-05-15T00:13:17.335Z,10.40
2023-05-15T00:15:18.975Z,10.30
2023-05-15T00:17:20.696Z,10.40
2023-05-15T00:19:22.519Z,10.30
2023-05-15T00:21:24.197Z,10.30
2023-05-15T00:23:25.929Z,10.30
2023-05-15T00:25:27.580Z,10.30
2023-05-15T00:27:29.187Z,10.40
2023-05-15T00:29:30.915Z,10.40
2023-05-15T00:31:33.530Z,10.30
2023-05-15T00:33:35.229Z,10.30
2023-05-15T00:35:36.875Z,10.30
2023-05-15T00:37:38.464Z,10.30
2023-05-15T00:39:40.219Z,10.30
2023-05-15T00:41:42.605Z,10.40
2023-05-15T00:43:45.032Z,10.40
2023-05-15T00:45:47.423Z,10.40
2023-05-15T00:47:49.546Z,10.50
2023-05-15T00:49:51.944Z,10.60
2023-05-15T00:51:53.655Z,10.80
2023-05-15T00:53:56.747Z,10.70
2023-05-15T00:55:59.276Z,10.70
2023-05-15T00:58:01.433Z,10.80
2023-05-15T01:00:05.014Z,10.80
2023-05-15T01:02:06.742Z,10.90
2023-05-15T01:04:08.472Z,10.90
2023-05-15T01:06:10.523Z,11.00
2023-05-15T01:08:26.429Z,11.00
2023-05-15T01:10:28.152Z,11.00
2023-05-15T01:12:30.260Z,11.00
2023-05-15T01:14:31.948Z,11.00
2023-05-15T01:16:34.469Z,11.00
2023-05-15T01:18:36.398Z,11.00
2023-05-15T01:20:58.379Z,10.90
2023-05-15T01:23:11.249Z,10.90
2023-05-15T01:25:31.714Z,10.90
2023-05-15T01:27:39.491Z,10.90
2023-05-15T01:29:48.487Z,11.00
2023-05-15T01:31:54.005Z,11.00
2023-05-15T01:33:59.137Z,11.00
2023-05-15T01:36:05.923Z,11.10
2023-05-15T01:38:13.400Z,11.00
2023-05-15T01:40:16.267Z,11.00
2023-05-15T01:42:19.391Z,11.00
2023-05-15T01:44:21.157Z,11.00
2023-05-15T01:46:23.802Z,11.00
2023-05-15T01:48:26.842Z,11.00
2023-05-15T01:50:30.874Z,11.00
2023-05-15T01:52:38.627Z,11.00
2023-05-15T01:54:40.885Z,11.00
2023-05-15T01:56:45.153Z,10.90
2023-05-15T01:58:46.840Z,10.90
2023-05-15T02:00:48.770Z,10.90
2023-05-15T02:02:50.731Z,11.00
2023-05-15T02:04:52.718Z,11.00
2023-05-15T02:06:55.045Z,10.90
2023-05-15T02:08:57.604Z,10.80
2023-05-15T02:11:00.793Z,10.80
2023-05-15T02:13:02.505Z,10.90
2023-05-15T02:15:04.447Z,10.90
2023-05-15T02:17:06.536Z,10.90
2023-05-15T02:19:08.325Z,10.90
2023-05-15T02:21:10.163Z,10.90
2023-05-15T02:23:11.806Z,10.90
2023-05-15T02:25:13.508Z,10.90
2023-05-15T02:27:23.776Z,10.90
2023-05-15T02:29:36.789Z,10.90
2023-05-15T02:31:41.557Z,10.90
2023-05-15T02:34:10.062Z,10.90
2023-05-15T02:36:17.828Z,10.90
2023-05-15T02:38:23.269Z,10.90
2023-05-15T02:40:25.954Z,10.90
2023-05-15T02:42:29.472Z,10.90
2023-05-15T02:44:31.988Z,10.90
2023-05-15T02:46:34.073Z,10.90
2023-05-15T02:48:37.683Z,10.90
2023-05-15T02:50:39.433Z,10.90
2023-05-15T02:52:41.127Z,11.00
2023-05-15T02:54:42.899Z,11.00
2023-05-15T02:56:44.563Z,11.10
2023-05-15T02:58:46.211Z,11.00
2023-05-15T03:00:48.100Z,11.10
2023-05-15T03:02:49.831Z,11.10
2023-05-15T03:04:51.572Z,11.10
2023-05-15T03:06:53.223Z,11.10
2023-05-15T03:08:54.851Z,11.00
2023-05-15T03:10:56.441Z,11.10
2023-05-15T03:12:58.471Z,11.00
2023-05-15T03:15:00.167Z,11.00
2023-05-15T03:17:01.839Z,11.00
2023-05-15T03:19:03.930Z,11.00
2023-05-15T03:21:05.737Z,11.00
2023-05-15T03:23:07.471Z,11.00
2023-05-15T03:25:12.500Z,10.90
2023-05-15T03:27:14.115Z,10.90
2023-05-15T03:29:16.039Z,10.90
2023-05-15T03:31:17.754Z,10.90
2023-05-15T03:33:19.408Z,10.90
2023-05-15T03:35:21.044Z,10.90
2023-05-15T03:37:22.716Z,10.90
2023-05-15T03:39:24.305Z,10.90
2023-05-15T03:41:27.803Z,10.90
2023-05-15T03:43:29.543Z,10.90
2023-05-15T03:45:31.242Z,10.80
2023-05-15T03:47:32.968Z,10.80
2023-05-15T03:49:35.109Z,10.90
2023-05-15T03:51:36.877Z,10.80
2023-05-15T03:53:38.697Z,10.80
2023-05-15T03:55:40.559Z,10.80
2023-05-15T03:57:42.241Z,10.80
2023-05-15T03:59:43.915Z,10.80
2023-05-15T04:02:02.945Z,10.90
2023-05-15T04:04:06.269Z,10.90
2023-05-15T04:06:07.854Z,10.90
2023-05-15T04:08:10.995Z,10.90
2023-05-15T04:10:12.806Z,10.90
2023-05-15T04:12:14.419Z,10.90
2023-05-15T04:14:16.105Z,10.90
2023-05-15T04:16:17.704Z,11.00
2023-05-15T04:18:19.403Z,11.00
2023-05-15T04:20:22.193Z,11.10
2023-05-15T04:22:23.934Z,11.20
2023-05-15T04:24:25.617Z,11.30
2023-05-15T04:26:27.460Z,11.20
2023-05-15T04:28:30.448Z,11.20
2023-05-15T04:30:32.273Z,11.20
2023-05-15T04:32:34.051Z,11.20
2023-05-15T04:34:35.795Z,11.30
2023-05-15T04:36:37.529Z,11.20
2023-05-15T04:38:39.173Z,11.30
2023-05-15T04:40:41.008Z,11.40
2023-05-15T04:42:42.761Z,11.60
2023-05-15T04:44:44.849Z,11.70
2023-05-15T04:46:46.586Z,11.80
2023-05-15T04:48:48.214Z,11.80
2023-05-15T04:50:49.888Z,11.90
2023-05-15T04:52:51.839Z,12.00
2023-05-15T04:54:55.600Z,12.00
2023-05-15T04:56:57.969Z,12.00
2023-05-15T04:58:59.809Z,12.00
2023-05-15T05:01:03.933Z,12.10
2023-05-15T05:03:06.239Z,12.10
2023-05-15T05:05:08.310Z,12.10
2023-05-15T05:07:09.987Z,12.20
2023-05-15T05:09:11.697Z,12.20
2023-05-15T05:11:13.355Z,12.20
2023-05-15T05:13:15.048Z,12.30
2023-05-15T05:15:16.668Z,12.30
2023-05-15T05:17:18.823Z,12.40
2023-05-15T05:19:20.492Z,12.30
2023-05-15T05:21:22.214Z,12.40
2023-05-15T05:23:23.945Z,12.40
2023-05-15T05:25:25.808Z,12.40
2023-05-15T05:27:27.768Z,12.50
2023-05-15T05:29:30.122Z,12.50
2023-05-15T05:31:31.810Z,12.60
2023-05-15T05:33:33.473Z,12.70
2023-05-15T05:35:35.103Z,12.70
2023-05-15T05:37:38.712Z,12.70
2023-05-15T05:39:41.927Z,12.80
2023-05-15T05:41:43.790Z,12.80
2023-05-15T05:43:45.458Z,12.80
2023-05-15T05:45:47.439Z,12.80
2023-05-15T05:47:49.242Z,12.90
2023-05-15T05:49:51.043Z,12.90
2023-05-15T05:51:52.775Z,12.90
2023-05-15T05:53:54.494Z,12.90
2023-05-15T05:55:56.302Z,12.90
2023-05-15T05:57:57.982Z,12.80
2023-05-15T05:59:59.965Z,12.80
2023-05-15T06:02:01.755Z,12.70
2023-05-15T06:04:03.594Z,12.70
2023-05-15T06:06:05.826Z,12.70
2023-05-15T06:08:07.519Z,12.70
2023-05-15T06:10:09.725Z,12.80
2023-05-15T06:12:11.585Z,12.90
2023-05-15T06:14:13.350Z,12.90
2023-05-15T06:16:14.940Z,12.90
2023-05-15T06:18:16.624Z,12.90
2023-05-15T06:20:18.619Z,12.90
2023-05-15T06:22:20.221Z,13.00
2023-05-15T06:24:21.926Z,13.00
2023-05-15T06:26:23.715Z,13.00
2023-05-15T06:28:25.367Z,13.00
2023-05-15T06:30:27.313Z,13.00
2023-05-15T06:32:29.228Z,13.10
2023-05-15T06:34:30.935Z,13.10
2023-05-15T06:36:32.718Z,13.20
2023-05-15T06:38:34.434Z,13.30
2023-05-15T06:40:36.111Z,13.30
2023-05-15T06:42:37.770Z,13.40
2023-05-15T06:44:39.491Z,13.50
2023-05-15T06:46:41.282Z,13.40
2023-05-15T06:48:43.042Z,13.50
2023-05-15T06:50:44.680Z,13.50
2023-05-15T06:52:46.384Z,13.50
2023-05-15T06:54:48.396Z,13.70
2023-05-15T06:56:50.118Z,13.70
2023-05-15T06:58:51.927Z,13.80
2023-05-15T07:00:54.919Z,13.80
2023-05-15T07:02:58.040Z,13.90
2023-05-15T07:04:59.823Z,14.00
2023-05-15T07:07:03.166Z,14.10
2023-05-15T07:09:04.824Z,14.20
2023-05-15T07:11:06.490Z,14.30
2023-05-15T07:13:08.157Z,14.30
2023-05-15T07:15:10.111Z,14.30
2023-05-15T07:17:12.043Z,14.30
2023-05-15T07:19:17.458Z,14.30
2023-05-15T07:21:19.177Z,14.40
2023-05-15T07:23:21.070Z,14.30
2023-05-15T07:25:23.336Z,14.30
2023-05-15T07:27:25.387Z,14.40
2023-05-15T07:29:27.130Z,14.50
2023-05-15T07:31:28.860Z,14.60
2023-05-15T07:33:30.659Z,14.80
2023-05-15T07:35:32.243Z,15.00
2023-05-15T07:37:33.872Z,15.00
2023-05-15T07:39:35.769Z,15.10
2023-05-15T07:41:37.407Z,15.00
2023-05-15T07:43:39.135Z,15.10
2023-05-15T07:45:41.182Z,15.20
2023-05-15T07:47:45.789Z,15.30
2023-05-15T07:49:47.488Z,15.40
2023-05-15T07:51:49.165Z,15.50
2023-05-15T07:53:50.802Z,15.70
2023-05-15T07:55:52.584Z,15.70
2023-05-15T07:57:54.356Z,15.70
2023-05-15T07:59:56.286Z,15.80
2023-05-15T08:01:58.073Z,15.70
2023-05-15T08:04:00.330Z,15.60
2023-05-15T08:06:02.106Z,15.40
2023-05-15T08:08:03.761Z,15.40
2023-05-15T08:10:06.475Z,15.60
2023-05-15T08:12:17.687Z,15.60
2023-05-15T08:14:19.404Z,15.70
2023-05-15T08:16:22.310Z,15.80
2023-05-15T08:18:24.042Z,16.10
2023-05-15T08:20:25.999Z,16.20
2023-05-15T08:22:30.310Z,16.10
2023-05-15T08:24:34.211Z,15.90
2023-05-15T08:26:45.648Z,15.90
2023-05-15T08:28:47.246Z,16.00
2023-05-15T08:30:50.074Z,16.00
2023-05-15T08:32:51.770Z,16.10
2023-05-15T08:34:54.497Z,16.20
2023-05-15T08:36:56.469Z,16.40
2023-05-15T08:38:58.091Z,16.50
2023-05-15T08:43:18.371Z,16.70
2023-05-15T08:45:20.450Z,16.70
2023-05-15T08:47:22.591Z,16.70
2023-05-15T08:49:24.232Z,16.70
2023-05-15T08:51:25.957Z,16.50
2023-05-15T08:53:29.119Z,16.50
2023-05-15T08:55:31.115Z,16.50
2023-05-15T08:57:48.136Z,16.60
2023-05-15T08:59:53.166Z,16.70
2023-05-15T09:01:57.458Z,16.90
2023-05-15T09:04:02.315Z,16.80
2023-05-15T09:06:05.431Z,16.70
2023-05-15T09:08:10.139Z,16.80
2023-05-15T09:10:12.977Z,16.90
2023-05-15T09:13:21.038Z,17.10
2023-05-15T09:15:13.745Z,17.30
2023-05-15T09:17:16.810Z,17.40
2023-05-15T09:19:19.459Z,17.40
2023-05-15T09:21:27.532Z,17.30
2023-05-15T09:23:29.154Z,17.30
2023-05-15T09:25:34.731Z,17.60
2023-05-15T09:27:52.128Z,17.60
2023-05-15T09:29:56.611Z,17.50
2023-05-15T09:32:02.447Z,17.60
2023-05-15T09:34:09.349Z,17.70
2023-05-15T09:36:21.259Z,17.90
2023-05-15T09:38:24.580Z,18.00
2023-05-15T09:40:30.940Z,18.00
2023-05-15T09:42:34.197Z,18.10
2023-05-15T09:44:36.228Z,17.90
2023-05-15T09:46:38.497Z,18.10
2023-05-15T09:48:40.434Z,18.20
2023-05-15T09:50:42.570Z,18.30
2023-05-15T09:52:45.181Z,18.50
2023-05-15T09:54:50.622Z,18.80
2023-05-15T09:56:53.303Z,18.70
2023-05-15T09:58:59.351Z,18.60
2023-05-15T10:01:02.989Z,18.10
2023-05-15T10:03:05.557Z,18.10
2023-05-15T10:05:07.764Z,17.80
2023-05-15T10:07:10.130Z,17.70
2023-05-15T10:09:15.396Z,17.90
2023-05-15T10:11:17.349Z,18.00
2023-05-15T10:13:19.249Z,18.10
2023-05-15T10:15:21.609Z,18.20
2023-05-15T10:19:47.199Z,18.20
2023-05-15T10:21:58.640Z,18.40
2023-05-15T10:24:00.830Z,19.00
2023-05-15T10:26:04.230Z,19.10
2023-05-15T10:28:11.007Z,18.60
2023-05-15T10:30:14.709Z,18.70
2023-05-15T10:32:17.033Z,19.40
2023-05-15T10:34:18.751Z,21.10
2023-05-15T10:36:20.526Z,22.10
2023-05-15T10:38:22.880Z,22.80
2023-05-15T10:40:24.684Z,23.60
2023-05-15T10:42:26.540Z,23.40
2023-05-15T10:44:28.218Z,21.80
2023-05-15T10:46:30.621Z,19.80
2023-05-15T10:48:33.478Z,19.10
2023-05-15T10:50:36.675Z,19.10
2023-05-15T10:52:39.876Z,18.90
2023-05-15T10:54:41.675Z,20.20
2023-05-15T10:56:43.449Z,22.40
2023-05-15T10:58:48.835Z,22.80
2023-05-15T11:00:51.102Z,22.80
2023-05-15T11:02:54.066Z,24.00
2023-05-15T11:04:56.749Z,23.00
2023-05-15T11:07:11.469Z,22.10
2023-05-15T11:09:36.441Z,20.80
2023-05-15T11:11:57.515Z,21.20
2023-05-15T11:14:06.113Z,22.50
2023-05-15T11:16:11.088Z,23.10
2023-05-15T11:18:14.027Z,24.20
2023-05-15T11:20:15.888Z,25.70
2023-05-15T11:22:21.833Z,26.00
2023-05-15T11:24:29.373Z,23.30
2023-05-15T11:26:34.339Z,22.00
2023-05-15T11:28:41.662Z,21.20
2023-05-15T11:30:44.194Z,21.30
2023-05-15T11:32:54.768Z,23.50
2023-05-15T11:34:59.731Z,22.60
2023-05-15T11:37:01.531Z,23.50
2023-05-15T11:39:09.738Z,23.50
2023-05-15T11:41:19.247Z,21.90
2023-05-15T11:43:25.538Z,22.20
2023-05-15T11:45:28.351Z,24.10
2023-05-15T11:47:31.597Z,24.40
2023-05-15T11:49:34.106Z,22.80
2023-05-15T11:51:43.252Z,21.40
2023-05-15T11:53:45.193Z,23.50
2023-05-15T11:55:46.836Z,24.60
2023-05-15T11:57:48.679Z,23.10
2023-05-15T11:59:53.805Z,23.60
2023-05-15T12:01:55.548Z,25.30
2023-05-15T12:03:57.547Z,25.90
2023-05-15T12:06:01.860Z,27.10
2023-05-15T12:08:03.696Z,24.70
2023-05-15T12:10:05.956Z,24.70
2023-05-15T12:12:13.001Z,22.30
2023-05-15T12:14:14.678Z,22.00
2023-05-15T12:16:16.656Z,21.20
2023-05-15T12:18:20.393Z,20.80
2023-05-15T12:20:23.345Z,20.90
2023-05-15T12:22:25.186Z,21.40
2023-05-15T12:24:27.032Z,21.10
2023-05-15T12:26:29.920Z,20.50
2023-05-15T12:28:35.690Z,20.40
2023-05-15T12:30:39.768Z,20.40
2023-05-15T12:32:42.758Z,20.30
2023-05-15T12:34:44.482Z,22.10
2023-05-15T12:36:46.068Z,24.00
2023-05-15T12:38:48.575Z,23.00
2023-05-15T12:40:53.866Z,21.20
2023-05-15T12:42:58.249Z,20.30
2023-05-15T12:45:00.021Z,20.10
2023-05-15T12:47:01.827Z,19.90
2023-05-15T12:49:04.201Z,19.80
2023-05-15T12:51:09.998Z,20.00
2023-05-15T12:53:13.142Z,22.50
2023-05-15T12:55:18.596Z,25.00
2023-05-15T12:57:20.497Z,24.80
2023-05-15T12:59:22.529Z,24.40
2023-05-15T13:01:25.522Z,23.10
2023-05-15T13:03:28.818Z,20.90
2023-05-15T13:05:32.567Z,20.20
2023-05-15T13:07:34.266Z,19.90
2023-05-15T13:09:37.029Z,19.50
2023-05-15T13:11:43.416Z,19.40
2023-05-15T13:13:46.353Z,20.90
2023-05-15T13:15:48.559Z,20.40
2023-05-15T13:17:56.551Z,19.90
2023-05-15T13:19:59.300Z,19.40
2023-05-15T13:22:01.174Z,19.20
2023-05-15T13:24:03.056Z,19.40
2023-05-15T13:26:04.811Z,19.50
2023-05-15T13:28:10.670Z,19.20
2023-05-15T13:30:12.528Z,19.30
2023-05-15T13:32:14.705Z,19.60
2023-05-15T13:34:19.981Z,20.70
2023-05-15T13:36:24.853Z,23.40
2023-05-15T13:38:26.595Z,24.20
2023-05-15T13:40:28.509Z,25.60
2023-05-15T13:42:30.529Z,25.80
2023-05-15T13:44:57.319Z,24.50
2023-05-15T13:47:07.443Z,24.70
2023-05-15T13:49:15.605Z,24.60
2023-05-15T13:51:17.368Z,23.50
2023-05-15T13:53:24.376Z,23.10
2023-05-15T13:55:31.686Z,22.70
2023-05-15T13:57:37.827Z,23.30
2023-05-15T13:59:52.135Z,23.60
2023-05-15T14:01:59.759Z,22.90
2023-05-15T14:04:07.893Z,22.20
2023-05-15T14:06:09.680Z,21.90
2023-05-15T14:08:11.847Z,21.20
2023-05-15T14:10:17.376Z,21.30
2023-05-15T14:12:38.161Z,22.50
2023-05-15T14:14:41.144Z,22.80
2023-05-15T14:16:42.954Z,23.20
2023-05-15T14:18:44.885Z,22.30
2023-05-15T14:20:46.592Z,21.50
2023-05-15T14:22:48.331Z,21.40
2023-05-15T14:24:50.429Z,21.80
2023-05-15T14:26:52.215Z,20.90
2023-05-15T14:28:53.884Z,19.90
2023-05-15T14:30:55.612Z,20.80
2023-05-15T14:32:57.379Z,21.60
2023-05-15T14:35:00.294Z,21.20
2023-05-15T14:37:04.541Z,20.50
2023-05-15T14:39:09.793Z,20.70
2023-05-15T14:41:12.489Z,20.70
2023-05-15T14:43:20.976Z,20.40
2023-05-15T14:45:22.950Z,20.10
2023-05-15T14:47:25.383Z,20.20
2023-05-15T14:49:36.090Z,20.90
2023-05-15T14:51:37.766Z,20.60
2023-05-15T14:53:39.497Z,20.40
2023-05-15T14:55:41.202Z,20.40
2023-05-15T14:57:49.014Z,20.40
2023-05-15T14:59:50.839Z,20.70
2023-05-15T15:01:52.570Z,20.70
2023-05-15T15:03:55.474Z,20.40
2023-05-15T15:05:57.588Z,20.20
2023-05-15T15:08:01.138Z,20.40
2023-05-15T15:10:02.803Z,21.30
2023-05-15T15:12:05.164Z,21.20
2023-05-15T15:14:07.146Z,20.20
2023-05-15T15:16:09.668Z,20.70
2023-05-15T15:18:11.484Z,21.40
2023-05-15T15:20:14.998Z,22.70
2023-05-15T15:22:18.658Z,23.10
2023-05-15T15:24:21.330Z,23.50
2023-05-15T15:26:22.998Z,21.80
2023-05-15T15:28:24.768Z,21.20
2023-05-15T15:30:26.817Z,20.30
2023-05-15T15:32:29.907Z,19.90
2023-05-15T15:34:31.639Z,19.90
2023-05-15T15:36:33.337Z,19.30
2023-05-15T15:38:35.010Z,19.60
2023-05-15T15:40:36.701Z,20.00
2023-05-15T15:42:38.370Z,20.00
2023-05-15T15:44:40.307Z,19.20
2023-05-15T15:46:41.979Z,19.30
2023-05-15T15:48:47.751Z,19.20
2023-05-15T15:50:50.124Z,19.20
2023-05-15T15:52:51.839Z,18.70
2023-05-15T15:54:53.954Z,19.60
2023-05-15T15:56:55.864Z,18.70
2023-05-15T15:58:57.562Z,19.00
2023-05-15T16:00:59.606Z,18.90
2023-05-15T16:03:01.342Z,18.50
2023-05-15T16:05:03.554Z,18.30
2023-05-15T16:07:05.392Z,18.30
2023-05-15T16:09:07.222Z,18.10
2023-05-15T16:11:08.977Z,17.70
2023-05-15T16:13:10.849Z,17.70
2023-05-15T16:15:22.331Z,17.60
2023-05-15T16:17:26.026Z,17.40
2023-05-15T16:19:27.956Z,17.30
2023-05-15T16:21:29.973Z,17.40
2023-05-15T16:23:35.730Z,17.00
2023-05-15T16:25:39.633Z,16.90
2023-05-15T16:27:41.515Z,16.90
2023-05-15T16:29:43.328Z,17.00
2023-05-15T16:31:46.858Z,17.00
2023-05-15T16:33:50.382Z,17.00
2023-05-15T16:35:52.692Z,17.10
2023-05-15T16:37:54.498Z,17.20
2023-05-15T16:39:56.163Z,17.20
2023-05-15T16:41:58.084Z,17.20
2023-05-15T16:44:01.803Z,17.10
2023-05-15T16:46:04.590Z,17.10
2023-05-15T16:48:06.401Z,17.00
2023-05-15T16:50:08.608Z,17.00
2023-05-15T16:52:10.382Z,16.80
2023-05-15T16:54:12.117Z,16.70
2023-05-15T16:56:16.605Z,16.70
2023-05-15T16:58:18.353Z,16.60
2023-05-15T17:00:24.003Z,16.50
2023-05-15T17:02:26.255Z,16.50
2023-05-15T17:04:29.089Z,16.40
2023-05-15T17:06:31.986Z,16.40
2023-05-15T17:08:34.598Z,16.50
2023-05-15T17:10:36.554Z,16.60
2023-05-15T17:12:40.887Z,16.50
2023-05-15T17:14:42.864Z,16.50
2023-05-15T17:16:47.266Z,16.50
2023-05-15T17:18:50.681Z,16.50
2023-05-15T17:20:52.643Z,16.50
2023-05-15T17:23:03.719Z,16.60
2023-05-15T17:25:07.246Z,16.70
2023-05-15T17:27:12.422Z,16.70
2023-05-15T17:29:22.262Z,16.70
2023-05-15T17:31:24.091Z,16.70
2023-05-15T17:33:31.499Z,16.60
2023-05-15T17:35:34.728Z,16.70
2023-05-15T17:37:38.127Z,16.80
2023-05-15T17:39:43.206Z,16.80
2023-05-15T17:41:51.220Z,16.90
2023-05-15T17:43:52.863Z,16.90
2023-05-15T17:45:54.730Z,16.90
2023-05-15T17:48:02.798Z,16.90
2023-05-15T17:50:12.783Z,17.00
2023-05-15T17:52:17.168Z,17.10
2023-05-15T17:54:21.282Z,17.10
2023-05-15T17:56:23.036Z,17.00
2023-05-15T17:58:29.008Z,17.00
2023-05-15T18:00:30.652Z,16.90
2023-05-15T18:02:33.448Z,16.70
2023-05-15T18:04:35.436Z,16.50
2023-05-15T18:06:38.164Z,16.40
2023-05-15T18:08:40.733Z,16.30
2023-05-15T18:10:42.531Z,16.10
2023-05-15T18:12:44.565Z,16.00
2023-05-15T18:14:46.252Z,15.80
2023-05-15T18:16:47.941Z,15.70
2023-05-15T18:18:52.914Z,15.50
2023-05-15T18:20:54.664Z,15.40
2023-05-15T18:22:56.756Z,15.40
2023-05-15T18:24:58.464Z,15.30
2023-05-15T18:27:02.321Z,15.20
2023-05-15T18:29:05.307Z,15.20
2023-05-15T18:31:07.411Z,15.20
2023-05-15T18:33:16.985Z,15.20
2023-05-15T18:35:19.215Z,15.20
2023-05-15T18:37:21.097Z,15.10
2023-05-15T18:39:23.231Z,15.10
2023-05-15T18:41:26.308Z,15.10
2023-05-15T18:43:28.677Z,15.10
2023-05-15T18:45:30.401Z,15.20
2023-05-15T18:47:34.854Z,15.20
2023-05-15T18:49:38.569Z,15.30
2023-05-15T18:51:43.330Z,15.30
2023-05-15T18:53:45.314Z,15.30
2023-05-15T18:55:47.097Z,15.30
2023-05-15T18:57:48.737Z,15.30
2023-05-15T19:00:00.131Z,15.30
2023-05-15T19:02:02.139Z,15.20
2023-05-15T19:04:03.839Z,15.20
2023-05-15T19:06:06.186Z,15.20
2023-05-15T19:08:07.850Z,15.20
2023-05-15T19:10:09.608Z,15.20
2023-05-15T19:12:11.292Z,15.20
2023-05-15T19:14:17.962Z,15.20
2023-05-15T19:16:19.762Z,15.20
2023-05-15T19:18:21.551Z,15.00
2023-05-15T19:20:23.730Z,14.90
2023-05-15T19:22:25.897Z,14.80
2023-05-15T19:24:27.641Z,14.80
2023-05-15T19:26:30.609Z,14.70
2023-05-15T19:28:35.402Z,14.60
2023-05-15T19:30:37.187Z,14.60
2023-05-15T19:32:41.566Z,14.60
2023-05-15T19:34:44.215Z,14.60
2023-05-15T19:36:46.754Z,14.60
2023-05-15T19:38:48.898Z,14.50
2023-05-15T19:40:51.036Z,14.50
2023-05-15T19:42:52.796Z,14.60
2023-05-15T19:44:54.610Z,14.50
2023-05-15T19:46:56.309Z,14.50
2023-05-15T19:48:58.121Z,14.50
2023-05-15T19:50:59.864Z,14.40
2023-05-15T19:53:01.466Z,14.50
2023-05-15T19:55:03.308Z,14.50
2023-05-15T19:57:07.529Z,14.50
2023-05-15T19:59:09.331Z,14.40
2023-05-15T20:01:23.286Z,14.40
2023-05-15T20:03:33.682Z,14.40
2023-05-15T20:05:41.271Z,14.30
2023-05-15T20:07:43.400Z,14.20
2023-05-15T20:09:53.659Z,14.00
2023-05-15T20:11:55.307Z,13.90
2023-05-15T20:13:56.992Z,13.80
2023-05-15T20:16:07.044Z,13.70
2023-05-15T20:18:08.907Z,13.70
2023-05-15T20:20:13.581Z,13.50
2023-05-15T20:22:15.392Z,13.40
2023-05-15T20:24:18.904Z,13.40
2023-05-15T20:26:22.231Z,13.40
2023-05-15T20:28:25.770Z,13.30
2023-05-15T20:30:27.733Z,13.20
2023-05-15T20:32:31.622Z,13.20
2023-05-15T20:34:38.135Z,13.20
2023-05-15T20:36:43.031Z,13.30
2023-05-15T20:38:47.926Z,13.20
2023-05-15T20:40:54.039Z,13.30
2023-05-15T20:42:57.049Z,13.30
2023-05-15T20:44:58.648Z,13.20
2023-05-15T20:47:00.594Z,13.30
2023-05-15T20:49:02.224Z,13.40
2023-05-15T20:51:03.879Z,13.40
2023-05-15T20:53:08.818Z,13.50
2023-05-15T20:55:19.964Z,13.40
2023-05-15T20:57:25.051Z,13.40
2023-05-15T20:59:29.522Z,13.30
2023-05-15T21:01:33.406Z,13.30
2023-05-15T21:03:35.379Z,13.40
2023-05-15T21:05:38.514Z,13.20
2023-05-15T21:07:40.509Z,13.20
2023-05-15T21:09:46.479Z,13.30
2023-05-15T21:11:49.021Z,13.20
2023-05-15T21:13:51.061Z,13.10
2023-05-15T21:15:52.707Z,13.20
2023-05-15T21:17:54.529Z,13.20
2023-05-15T21:20:11.780Z,13.20
2023-05-15T21:22:15.716Z,13.20
2023-05-15T21:24:20.985Z,13.20
2023-05-15T21:26:23.265Z,13.10
2023-05-15T21:28:24.956Z,13.00
2023-05-15T21:30:27.247Z,13.00
2023-05-15T21:32:29.188Z,12.90
2023-05-15T21:34:30.929Z,12.90
2023-05-15T21:36:37.670Z,12.90
2023-05-15T21:38:40.072Z,12.90
2023-05-15T21:40:42.031Z,12.90
2023-05-15T21:42:43.764Z,12.90
2023-05-15T21:44:45.824Z,12.80
2023-05-15T21:46:47.514Z,12.80
2023-05-15T21:48:51.445Z,12.70
2023-05-15T21:50:57.512Z,12.70
2023-05-15T21:53:00.817Z,12.70
2023-05-15T21:55:02.857Z,12.60
2023-05-15T21:57:07.147Z,12.50
2023-05-15T21:59:10.413Z,12.50
2023-05-15T22:01:12.301Z,12.40
2023-05-15T22:03:14.182Z,12.40
2023-05-15T22:05:17.381Z,12.40
2023-05-15T22:07:19.155Z,12.40
2023-05-15T22:09:22.575Z,12.30
2023-05-15T22:11:27.944Z,12.30
2023-05-15T22:13:29.723Z,12.20
2023-05-15T22:15:31.680Z,12.10
2023-05-15T22:17:37.393Z,12.10
2023-05-15T22:19:44.475Z,12.00
2023-05-15T22:21:46.193Z,11.90
2023-05-15T22:23:48.133Z,12.00
2023-05-15T22:25:49.780Z,12.10
2023-05-15T22:27:51.645Z,12.10
2023-05-15T22:29:54.673Z,12.10
2023-05-15T22:32:00.314Z,12.00
2023-05-15T22:34:02.186Z,12.00
2023-05-15T22:36:20.353Z,11.90
2023-05-15T22:38:22.321Z,11.90
2023-05-15T22:40:28.619Z,12.00
2023-05-15T22:42:31.976Z,12.00
2023-05-15T22:44:33.651Z,12.00
2023-05-15T22:46:36.595Z,11.90
2023-05-15T22:48:39.543Z,11.90
2023-05-15T22:50:41.691Z,11.90
2023-05-15T22:52:43.416Z,11.80
2023-05-15T22:54:45.125Z,11.80
2023-05-15T22:56:47.114Z,11.80
2023-05-15T22:59:22.581Z,11.80
2023-05-15T23:01:49.777Z,11.90
2023-05-15T23:03:51.906Z,11.80
2023-05-15T23:06:05.840Z,11.80
2023-05-15T23:08:27.005Z,11.80
2023-05-15T23:10:29.041Z,11.80
2023-05-15T23:12:31.042Z,11.80
2023-05-15T23:14:34.418Z,11.70
2023-05-15T23:16:36.399Z,11.70
2023-05-15T23:18:38.146Z,11.60
2023-05-15T23:20:39.926Z,11.60
2023-05-15T23:22:43.354Z,11.50
2023-05-15T23:24:46.096Z,11.40
2023-05-15T23:26:48.867Z,11.30
2023-05-15T23:28:50.577Z,11.30
2023-05-15T23:30:55.933Z,11.30
2023-05-15T23:32:58.011Z,11.40
2023-05-15T23:35:00.103Z,11.50
2023-05-15T23:37:01.767Z,11.40
2023-05-15T23:39:04.861Z,11.40
2023-05-15T23:41:06.828Z,11.40
2023-05-15T23:43:11.432Z,11.30
2023-05-15T23:45:13.937Z,11.30
2023-05-15T23:47:16.391Z,11.30
2023-05-15T23:49:18.039Z,11.20
2023-05-15T23:51:20.540Z,11.20
2023-05-15T23:53:22.282Z,11.20
2023-05-15T23:55:24.111Z,11.10
2023-05-15T23:57:25.836Z,11.10
2023-05-15T23:59:27.638Z,11.10
